Terminal Aerodrome Forecast
Issued by NWS

Home | Current Version | Previous Version | Text Only | Print | Product List | Glossary On
Versions: 1 2 3 4 5 6 7 8 9 10 11 12 13 14
542
FTUS42 KFFC 242202 AAA
TAFPDK
TAF AMD
KPDK 242202Z 2422/2518 36004KT P6SM FEW070
     FM250000 00000KT P6SM FEW250
     FM251500 09004KT P6SM FEW035=

USA.gov is the U.S. government's official web portal to all federal, state and local government web resources and services.